Time;durP1;ratioP1;P1;durP2;ratioP2;P2;SDS_P1;SDS_P2;PMS_P1;PMS_P2;Temp;Humidity;BMP_temperature;BMP_pressure;BME280_temperature;BME280_humidity;BME280_pressure;Samples;Min_cycle;Max_cycle;Signal;HPM_P1;HPM_P2
2022/08/18 00:08:08;;;;;;;15.00;14.07;;;21.00;40.40;;;;;;6153767;23;20376;-79
2022/08/18 00:13:56;;;;;;;15.10;14.40;;;20.90;41.80;;;;;;6124270;23;20996;-80
2022/08/18 00:20:07;;;;;;;14.90;14.20;;;20.70;42.30;;;;;;6088804;23;20422;-80
2022/08/18 00:23:05;;;;;;;;;;;;;;;;;;;;;
2022/08/18 00:26:20;;;;;;;15.13;14.37;;;20.70;41.90;;;;;;6213573;23;20510;-80
2022/08/18 00:36:04;;;;;;;14.97;14.27;;;20.90;41.10;;;;;;6086451;23;20384;-80
2022/08/18 00:39:15;;;;;;;15.30;14.70;;;20.90;40.70;;;;;;6028339;23;20399;-80
2022/08/18 00:46:20;;;;;;;15.13;14.30;;;21.10;40.20;;;;;;6065118;23;20471;-80
2022/08/18 00:49:41;;;;;;;;;;;;;;;;;;;;;
2022/08/18 00:53:16;;;;;;;14.30;13.70;;;20.90;40.10;;;;;;6008118;23;20472;-81
2022/08/18 01:03:46;;;;;;;14.00;13.40;;;21.00;39.60;;;;;;6008483;23;20418;-80
2022/08/18 01:14:18;;;;;;;14.70;13.90;;;21.10;41.00;;;;;;5962983;24;20840;-80
2022/08/18 01:28:03;;;;;;;15.03;14.33;;;21.50;37.20;;;;;;6047580;23;20410;-81
2022/08/18 01:34:33;;;;;;;15.07;14.27;;;21.50;37.00;;;;;;6046241;23;20847;-80
2022/08/18 01:37:41;;;;;;;14.87;13.97;;;21.50;37.00;;;;;;6036981;23;20397;-81
2022/08/18 01:41:03;;;;;;;;;;;;;;;;;;;;;
2022/08/18 01:45:27;;;;;;;13.97;13.37;;;21.40;36.50;;;;;;6036584;23;20377;-81
2022/08/18 01:48:18;;;;;;;;;;;;;;;;;;;;;
2022/08/18 01:51:28;;;;;;;;;;;;;;;;;;;;;
2022/08/18 01:54:50;;;;;;;15.43;14.73;;;21.10;37.70;;;;;;6084344;23;20460;-80
2022/08/18 01:57:32;;;;;;;14.37;13.77;;;21.10;38.10;;;;;;6064832;23;20387;-80
2022/08/18 02:00:19;;;;;;;;;;;;;;;;;;;;;
2022/08/18 02:03:25;;;;;;;15.37;14.57;;;21.20;37.70;;;;;;6094064;23;20474;-81
2022/08/18 02:10:00;;;;;;;14.83;14.03;;;21.20;37.40;;;;;;6176280;23;20370;-80
2022/08/18 02:16:40;;;;;;;14.63;13.83;;;21.30;37.70;;;;;;6035867;23;20376;-80
2022/08/18 02:19:38;;;;;;;14.90;14.20;;;21.40;37.80;;;;;;6012050;23;20736;-80
2022/08/18 02:22:38;;;;;;;;;;;;;;;;;;;;;
2022/08/18 02:28:42;;;;;;;15.50;14.70;;;21.50;37.10;;;;;;6107698;23;20386;-80
2022/08/18 02:31:51;;;;;;;14.87;14.17;;;21.40;37.20;;;;;;6098282;23;20472;-81
2022/08/18 02:34:46;;;;;;;15.40;14.60;;;21.20;38.80;;;;;;6121839;23;20402;-80
2022/08/18 02:41:25;;;;;;;15.60;14.80;;;21.20;38.50;;;;;;6107369;23;20437;-80
2022/08/18 02:44:49;;;;;;;;;;;;;;;;;;;;;
2022/08/18 02:47:38;;;;;;;15.60;14.90;;;20.90;40.00;;;;;;6066136;23;20438;-80
2022/08/18 02:53:43;;;;;;;16.10;15.40;;;21.00;39.80;;;;;;6093392;23;20425;-79
2022/08/18 02:56:28;;;;;;;15.93;14.90;;;21.00;40.10;;;;;;6093789;23;20406;-79
2022/08/18 02:59:50;;;;;;;16.03;15.03;;;20.90;40.00;;;;;;6069203;23;20481;-80
2022/08/18 03:03:11;;;;;;;;;;;;;;;;;;;;;
2022/08/18 03:06:39;;;;;;;;;;;;;;;;;;;;;
2022/08/18 03:09:53;;;;;;;15.53;14.83;;;20.70;41.30;;;;;;6154184;23;20608;-80
2022/08/18 03:12:47;;;;;;;16.50;15.60;;;20.70;41.60;;;;;;6138865;23;20384;-80
2022/08/18 03:15:42;;;;;;;;;;;;;;;;;;;;;
2022/08/18 03:18:47;;;;;;;;;;;;;;;;;;;;;
2022/08/18 03:21:41;;;;;;;15.90;15.20;;;20.90;41.10;;;;;;6246188;23;20465;-79
2022/08/18 03:24:23;;;;;;;;;;;;;;;;;;;;;
2022/08/18 03:27:39;;;;;;;16.00;15.30;;;20.80;41.00;;;;;;6153041;23;20819;-79
2022/08/18 03:30:19;;;;;;;15.57;14.87;;;20.70;41.30;;;;;;6152852;23;20407;-79
2022/08/18 03:33:37;;;;;;;16.67;15.77;;;21.00;40.90;;;;;;6207597;23;20381;-79
2022/08/18 03:37:13;;;;;;;;;;;;;;;;;;;;;
2022/08/18 03:46:57;;;;;;;16.30;15.40;;;21.50;38.10;;;;;;6008618;23;20401;-79
2022/08/18 03:49:39;;;;;;;;;;;;;;;;;;;;;
2022/08/18 03:56:32;;;;;;;16.63;15.87;;;21.30;38.50;;;;;;5946560;24;20755;-79
2022/08/18 03:59:30;;;;;;;17.07;15.97;;;21.30;38.60;;;;;;6012244;23;20899;-79
2022/08/18 04:06:22;;;;;;;;;;;;;;;;;;;;;
2022/08/18 04:09:22;;;;;;;15.87;15.17;;;21.10;40.20;;;;;;6211274;23;20430;-80
2022/08/18 04:16:13;;;;;;;;;;;;;;;;;;;;;
2022/08/18 04:19:17;;;;;;;;;;;;;;;;;;;;;
2022/08/18 04:22:18;;;;;;;16.90;16.20;;;21.10;40.80;;;;;;6124891;23;20437;-81
2022/08/18 04:28:44;;;;;;;17.40;16.10;;;21.00;41.20;;;;;;6230635;23;20416;-78
2022/08/18 04:31:41;;;;;;;17.53;16.63;;;20.70;42.10;;;;;;6113244;23;20390;-80
2022/08/18 04:34:36;;;;;;;17.30;16.50;;;20.60;42.10;;;;;;6141663;23;20443;-80
2022/08/18 04:53:43;;;;;;;17.63;16.73;;;20.70;41.80;;;;;;6062608;23;20391;-79
2022/08/18 04:54:28;;;;;;;21.50;20.20;;;20.70;41.40;;;;;;6042601;23;20892;-79
2022/08/18 04:57:49;;;;;;;18.27;17.30;;;20.70;41.50;;;;;;6041511;23;20407;-79
2022/08/18 05:03:02;;;;;;;17.47;16.67;;;20.80;41.00;;;;;;6212710;23;20427;-81
2022/08/18 05:16:02;;;;;;;17.83;16.90;;;20.80;41.80;;;;;;6095669;23;20431;-81
2022/08/18 05:22:07;;;;;;;19.50;18.40;;;20.80;42.00;;;;;;6095687;23;20842;-81
2022/08/18 05:37:50;;;;;;;19.53;18.47;;;21.40;39.30;;;;;;6208980;23;20930;-79
2022/08/18 05:41:16;;;;;;;18.13;17.30;;;21.40;39.20;;;;;;6097915;23;20423;-79
2022/08/18 05:44:04;;;;;;;20.10;19.20;;;21.50;38.50;;;;;;6014096;23;20397;-79
2022/08/18 05:46:51;;;;;;;21.20;20.10;;;21.60;37.70;;;;;;6064755;23;20443;-79
2022/08/18 05:53:27;;;;;;;;;;;;;;;;;;;;;
2022/08/18 05:59:31;;;;;;;19.40;18.40;;;21.80;37.20;;;;;;6215028;23;20862;-79
2022/08/18 06:02:58;;;;;;;;;;;;;;;;;;;;;
2022/08/18 06:06:07;;;;;;;19.97;19.00;;;22.00;36.80;;;;;;6214700;23;20522;-79
2022/08/18 06:09:24;;;;;;;;;;;;;;;;;;;;;
2022/08/18 06:12:38;;;;;;;18.93;18.03;;;22.10;36.80;;;;;;6124601;23;20456;-79
2022/08/18 06:15:48;;;;;;;20.00;19.00;;;22.10;36.30;;;;;;6213325;23;20797;-79
2022/08/18 06:19:13;;;;;;;21.57;20.27;;;22.20;36.00;;;;;;6096412;23;20478;-79
2022/08/18 06:22:36;;;;;;;20.57;19.50;;;22.20;35.80;;;;;;6065757;23;20388;-79
2022/08/18 06:26:04;;;;;;;;;;;;;;;;;;;;;
2022/08/18 06:29:16;;;;;;;20.80;19.83;;;22.10;35.70;;;;;;6102972;23;20561;-79
2022/08/18 06:32:13;;;;;;;19.97;19.00;;;22.10;35.80;;;;;;6094386;23;20390;-79
2022/08/18 06:35:19;;;;;;;20.57;19.50;;;22.10;35.80;;;;;;6095075;23;20452;-79
2022/08/18 06:38:45;;;;;;;19.97;19.03;;;22.20;35.90;;;;;;6099247;23;20386;-79
2022/08/18 06:41:48;;;;;;;19.63;18.50;;;22.10;35.30;;;;;;5984735;23;20941;-79
2022/08/18 06:45:05;;;;;;;20.67;19.67;;;22.10;35.80;;;;;;5991604;23;20916;-78
2022/08/18 06:47:58;;;;;;;20.00;19.00;;;22.10;36.00;;;;;;6013333;23;20400;-78
2022/08/18 06:50:50;;;;;;;21.07;20.07;;;22.20;35.80;;;;;;6099501;23;20374;-78
2022/08/18 06:54:08;;;;;;;21.27;20.17;;;22.30;35.40;;;;;;6089157;23;20385;-78
2022/08/18 06:56:46;;;;;;;20.90;19.37;;;22.30;35.00;;;;;;6124437;23;20358;-80
2022/08/18 06:59:37;;;;;;;21.13;20.13;;;22.30;35.20;;;;;;6240367;23;20367;-83
2022/08/18 07:06:21;;;;;;;20.03;18.83;;;22.30;35.20;;;;;;6123979;23;20488;-79
2022/08/18 07:09:21;;;;;;;19.80;18.70;;;22.20;35.50;;;;;;6100270;23;20421;-77
2022/08/18 07:12:27;;;;;;;18.40;17.50;;;22.30;34.40;;;;;;6093532;23;20409;-78
2022/08/18 07:15:31;;;;;;;18.40;17.50;;;22.30;33.80;;;;;;6098117;23;20400;-80
2022/08/18 07:18:05;;;;;;;20.50;19.50;;;22.40;33.10;;;;;;6215793;23;20387;-77
2022/08/18 07:21:13;;;;;;;19.87;18.87;;;22.50;32.90;;;;;;6217141;23;20386;-76
2022/08/18 07:24:36;;;;;;;19.57;18.47;;;22.40;32.60;;;;;;6099548;23;20397;-80
2022/08/18 07:27:23;;;;;;;19.43;18.43;;;22.30;33.20;;;;;;6112933;23;20398;-79
2022/08/18 07:30:13;;;;;;;18.60;17.60;;;22.40;33.40;;;;;;6215414;23;20718;-78
2022/08/18 07:32:50;;;;;;;18.93;17.63;;;22.50;33.40;;;;;;6215976;23;20376;-80
2022/08/18 07:35:39;;;;;;;18.73;17.77;;;22.50;33.10;;;;;;6217524;23;20769;-79
2022/08/18 07:38:21;;;;;;;19.43;18.50;;;22.60;33.10;;;;;;6214947;23;20927;-80
2022/08/18 07:41:19;;;;;;;20.10;18.90;;;22.60;32.80;;;;;;6215670;23;20448;-80
2022/08/18 07:44:38;;;;;;;19.40;18.30;;;22.60;32.90;;;;;;6214473;23;20390;-80
2022/08/18 07:47:12;;;;;;;19.13;18.13;;;22.60;32.80;;;;;;6100807;23;20374;-80
2022/08/18 07:49:46;;;;;;;17.60;16.80;;;22.60;33.10;;;;;;6212140;23;20382;-81
2022/08/18 07:52:28;;;;;;;18.30;17.50;;;22.50;33.40;;;;;;6214720;23;20397;-81
2022/08/18 07:55:52;;;;;;;18.50;17.60;;;22.50;33.20;;;;;;6215299;23;20685;-81
2022/08/18 07:58:42;;;;;;;18.60;17.70;;;22.60;33.50;;;;;;6170092;23;20387;-81
2022/08/18 08:01:41;;;;;;;18.50;17.60;;;22.60;33.60;;;;;;6214676;23;20378;-82
2022/08/18 08:04:38;;;;;;;18.30;17.40;;;22.50;33.70;;;;;;6123163;23;20744;-79
2022/08/18 08:07:37;;;;;;;17.30;16.50;;;22.50;34.00;;;;;;6214397;23;20715;-80
2022/08/18 08:10:21;;;;;;;17.90;17.00;;;22.50;34.00;;;;;;6211758;23;20387;-80
2022/08/18 08:13:12;;;;;;;17.43;16.53;;;22.50;34.10;;;;;;6214518;23;20450;-79
2022/08/18 08:16:09;;;;;;;17.63;16.83;;;22.50;34.00;;;;;;6214537;23;20375;-79
2022/08/18 08:19:16;;;;;;;18.30;17.00;;;22.50;33.90;;;;;;6214294;23;20473;-79
2022/08/18 08:22:26;;;;;;;18.47;17.50;;;22.50;33.90;;;;;;6214135;23;20370;-79
2022/08/18 08:25:06;;;;;;;18.70;17.80;;;22.60;34.20;;;;;;6128142;23;20487;-77
2022/08/18 08:28:23;;;;;;;18.00;17.10;;;22.50;34.30;;;;;;6128159;23;20387;-76
2022/08/18 08:31:47;;;;;;;;;;;;;;;;;;;;;
2022/08/18 08:34:59;;;;;;;17.53;16.73;;;22.50;34.60;;;;;;6151662;23;20463;-75
2022/08/18 08:38:10;;;;;;;19.20;18.17;;;22.50;34.70;;;;;;6127821;23;20388;-72
2022/08/18 08:40:51;;;;;;;17.97;17.03;;;22.60;35.20;;;;;;6125131;23;20699;-73
2022/08/18 08:43:35;;;;;;;17.93;17.13;;;22.60;34.80;;;;;;6191287;23;20394;-73
2022/08/18 08:47:12;;;;;;;18.80;17.60;;;22.60;34.80;;;;;;6214022;23;20387;-74
2022/08/18 08:49:52;;;;;;;18.50;17.50;;;22.70;34.70;;;;;;6082597;23;20386;-74
2022/08/18 08:52:21;;;;;;;19.33;18.33;;;22.70;34.70;;;;;;6098784;23;20731;-73
2022/08/18 08:54:55;;;;;;;19.33;18.30;;;22.70;34.20;;;;;;6099275;23;20397;-73
2022/08/18 08:57:31;;;;;;;18.70;17.70;;;22.80;34.40;;;;;;6100383;23;20370;-73
2022/08/18 09:00:01;;;;;;;18.87;17.97;;;22.80;34.50;;;;;;6103444;23;20477;-74
2022/08/18 09:03:03;;;;;;;19.20;18.30;;;22.80;34.30;;;;;;6213705;23;20375;-73
2022/08/18 09:05:57;;;;;;;19.00;18.00;;;22.80;34.80;;;;;;6213621;23;20446;-73
2022/08/18 09:08:35;;;;;;;19.67;18.77;;;22.70;35.10;;;;;;6197409;23;20379;-73
2022/08/18 09:11:01;;;;;;;20.17;19.17;;;22.70;35.70;;;;;;6213294;23;20422;-73
2022/08/18 09:13:52;;;;;;;19.27;18.17;;;22.70;35.80;;;;;;6213404;23;20720;-74
2022/08/18 09:16:51;;;;;;;19.13;17.93;;;22.80;35.90;;;;;;6213400;23;20371;-74
2022/08/18 09:19:44;;;;;;;19.83;18.80;;;22.80;35.70;;;;;;6213350;23;20368;-74
2022/08/18 09:22:24;;;;;;;18.60;17.70;;;22.90;35.50;;;;;;6213069;23;20859;-74
2022/08/18 09:24:53;;;;;;;19.30;18.30;;;23.00;35.70;;;;;;6213236;23;20421;-73
2022/08/18 09:31:28;;;;;;;19.73;18.73;;;23.10;35.80;;;;;;6070716;23;20872;-75
2022/08/18 09:34:33;;;;;;;19.63;18.67;;;23.20;35.20;;;;;;6210303;23;20387;-76
2022/08/18 09:37:28;;;;;;;21.17;19.97;;;23.30;35.30;;;;;;6214293;23;20711;-75
2022/08/18 09:43:24;;;;;;;21.10;20.00;;;23.40;35.00;;;;;;6214599;23;20738;-76
2022/08/18 09:49:45;;;;;;;19.90;18.80;;;23.60;34.30;;;;;;6198666;23;20386;-75
2022/08/18 09:53:06;;;;;;;20.57;19.43;;;23.70;34.60;;;;;;6109423;23;20732;-75
2022/08/18 09:56:01;;;;;;;21.87;20.40;;;23.80;33.70;;;;;;6077037;23;20489;-75
2022/08/18 09:58:57;;;;;;;21.47;19.93;;;23.90;33.40;;;;;;6187311;23;20379;-76
2022/08/18 10:01:40;;;;;;;20.47;19.40;;;24.00;33.40;;;;;;6173038;23;20859;-76
2022/08/18 10:04:47;;;;;;;20.73;19.53;;;24.00;33.40;;;;;;6188099;23;20451;-76
2022/08/18 10:07:53;;;;;;;21.07;19.87;;;24.00;33.40;;;;;;6187564;23;20386;-78
2022/08/18 10:11:22;;;;;;;20.00;18.90;;;24.00;33.40;;;;;;6160042;23;20387;-76
2022/08/18 10:14:56;;;;;;;20.40;19.10;;;24.10;33.40;;;;;;6052826;23;20412;-75
2022/08/18 10:17:59;;;;;;;20.23;19.13;;;24.10;33.10;;;;;;6070703;23;20410;-76
2022/08/18 10:20:54;;;;;;;21.20;20.10;;;24.10;33.40;;;;;;6043355;23;20391;-75
2022/08/18 10:23:41;;;;;;;20.43;19.33;;;24.20;32.80;;;;;;6219715;23;20348;-75
2022/08/18 10:26:49;;;;;;;20.60;19.50;;;24.20;32.70;;;;;;6216905;23;20692;-76
2022/08/18 10:30:13;;;;;;;;;;;;;;;;;;;;;
2022/08/18 10:50:08;;;;;;;;;;;;;;;;;;;;;
2022/08/18 10:53:15;;;;;;;21.73;20.47;;;24.80;30.70;;;;;;6013669;23;20783;-76
2022/08/18 10:56:34;;;;;;;22.10;20.70;;;24.80;30.30;;;;;;6157938;23;20372;-76
2022/08/18 11:00:10;;;;;;;21.70;20.43;;;24.80;30.70;;;;;;6099277;23;20415;-76
2022/08/18 11:07:25;;;;;;;22.90;21.57;;;24.80;29.50;;;;;;6077049;23;20387;-77
2022/08/18 11:10:34;;;;;;;20.77;19.67;;;24.90;29.40;;;;;;6066728;23;20477;-74
2022/08/18 11:16:38;;;;;;;22.53;21.33;;;24.90;29.20;;;;;;6129101;23;20377;-75
2022/08/18 11:19:16;;;;;;;20.17;19.07;;;24.90;29.50;;;;;;6158083;23;20363;-75
2022/08/18 11:22:36;;;;;;;22.03;20.83;;;24.80;29.70;;;;;;6158304;23;20404;-75
2022/08/18 11:25:41;;;;;;;21.97;20.67;;;24.70;29.00;;;;;;6159209;23;20424;-75
2022/08/18 11:28:20;;;;;;;22.10;20.90;;;24.70;29.00;;;;;;6013288;23;20468;-76
2022/08/18 11:31:17;;;;;;;23.17;21.77;;;24.70;28.70;;;;;;6159012;23;20729;-75
2022/08/18 11:34:31;;;;;;;21.60;20.40;;;24.70;28.40;;;;;;6159142;23;20410;-75
2022/08/18 11:37:42;;;;;;;22.67;21.43;;;24.70;28.80;;;;;;6184942;23;20447;-75
2022/08/18 11:40:40;;;;;;;20.87;19.77;;;24.70;28.70;;;;;;6161569;23;20710;-75
2022/08/18 11:43:30;;;;;;;22.60;21.20;;;24.80;28.30;;;;;;6189056;23;20487;-75
2022/08/18 11:46:42;;;;;;;22.23;21.03;;;24.80;28.20;;;;;;6187965;23;20423;-76
2022/08/18 11:49:51;;;;;;;;;;;;;;;;;;;;;
2022/08/18 11:53:04;;;;;;;23.03;21.63;;;24.80;28.40;;;;;;6215454;23;20780;-76
2022/08/18 11:56:33;;;;;;;22.00;20.70;;;24.90;28.60;;;;;;6154243;23;20387;-76
2022/08/18 11:59:37;;;;;;;;;;;;;;;;;;;;;
2022/08/18 12:05:28;;;;;;;21.33;20.10;;;24.90;28.20;;;;;;6215318;23;20433;-76
2022/08/18 12:08:09;;;;;;;21.93;20.63;;;24.90;28.30;;;;;;6189039;23;20680;-75
2022/08/18 12:11:25;;;;;;;21.63;20.43;;;24.90;28.30;;;;;;6184626;23;20416;-76
2022/08/18 12:13:54;;;;;;;;;;;;;;;;;;;;;
2022/08/18 12:21:02;;;;;;;;;;;;;;;;;;;;;
2022/08/18 12:24:00;;;;;;;20.47;19.37;;;25.10;26.60;;;;;;6063521;23;20384;-76
2022/08/18 12:26:47;;;;;;;21.97;20.67;;;25.10;26.60;;;;;;6040825;23;20523;-75
2022/08/18 12:29:33;;;;;;;20.30;19.20;;;25.20;27.00;;;;;;6041198;23;20463;-76
2022/08/18 12:31:59;;;;;;;20.93;19.80;;;25.20;26.90;;;;;;6064582;23;20392;-76
2022/08/18 12:34:33;;;;;;;21.70;20.50;;;25.20;26.80;;;;;;6040849;23;20444;-76
2022/08/18 12:37:57;;;;;;;20.83;19.70;;;25.10;26.40;;;;;;6040995;23;20162;-75
2022/08/18 12:40:40;;;;;;;;;;;;;;;;;;;;;
2022/08/18 12:47:30;;;;;;;;;;;;;;;;;;;;;
2022/08/18 12:54:23;;;;;;;;;;;;;;;;;;;;;
2022/08/18 13:00:12;;;;;;;20.43;19.33;;;25.40;25.30;;;;;;6036441;23;20377;-76
2022/08/18 13:05:39;;;;;;;19.60;18.50;;;25.40;24.30;;;;;;6007462;23;20519;-76
2022/08/18 13:08:20;;;;;;;18.33;17.10;;;25.40;24.30;;;;;;6006353;23;20489;-76
2022/08/18 13:11:14;;;;;;;;;;;;;;;;;;;;;
2022/08/18 13:14:02;;;;;;;;;;;;;;;;;;;;;
2022/08/18 13:16:50;;;;;;;18.40;17.50;;;25.40;23.50;;;;;;6214456;23;20463;-76
2022/08/18 13:23:15;;;;;;;19.60;18.60;;;25.50;23.50;;;;;;6064707;23;20382;-76
2022/08/18 13:26:43;;;;;;;20.20;18.50;;;25.50;23.70;;;;;;5956815;24;20439;-75
2022/08/18 13:39:21;;;;;;;19.97;18.87;;;25.50;24.00;;;;;;5903103;24;20388;-76
2022/08/18 13:42:44;;;;;;;19.93;18.80;;;25.60;24.00;;;;;;5896343;24;20408;-76
2022/08/18 13:49:50;;;;;;;20.57;19.37;;;25.60;24.40;;;;;;5951540;24;20414;-76
2022/08/18 13:52:19;;;;;;;19.93;18.90;;;25.50;24.70;;;;;;5894304;23;20418;-76
2022/08/18 13:58:19;;;;;;;19.20;18.10;;;25.40;24.30;;;;;;6077715;23;20468;-76
2022/08/18 14:00:57;;;;;;;17.57;16.67;;;25.50;23.40;;;;;;6097471;23;20385;-75
2022/08/18 14:04:16;;;;;;;;;;;;;;;;;;;;;
2022/08/18 14:07:13;;;;;;;18.00;16.90;;;25.50;23.40;;;;;;6115066;23;20398;-77
2022/08/18 14:09:44;;;;;;;19.30;18.20;;;25.50;23.30;;;;;;5976187;23;20385;-76
2022/08/18 14:13:01;;;;;;;18.37;17.27;;;25.60;23.90;;;;;;5984156;23;20404;-80
2022/08/18 14:16:19;;;;;;;;;;;;;;;;;;;;;
2022/08/18 14:55:13;;;;;;;;;;;;;;;;;;;;;
2022/08/18 15:02:03;;;;;;;;;;;;;;;;;;;;;
2022/08/18 15:09:06;;;;;;;;;;;;;;;;;;;;;
2022/08/18 15:19:38;;;;;;;18.43;17.33;;;25.90;22.00;;;;;;5795744;24;20427;-79
2022/08/18 15:26:26;;;;;;;;;;;;;;;;;;;;;
2022/08/18 15:30:03;;;;;;;;;;;;;;;;;;;;;
2022/08/18 15:33:14;;;;;;;18.13;17.13;;;25.90;21.60;;;;;;5997970;23;20813;-78
2022/08/18 15:36:31;;;;;;;;;;;;;;;;;;;;;
2022/08/18 15:39:04;;;;;;;18.17;17.27;;;25.90;21.80;;;;;;6036604;23;20827;-78
2022/08/18 15:42:38;;;;;;;;;;;;;;;;;;;;;
2022/08/18 15:55:55;;;;;;;18.27;17.17;;;25.90;22.50;;;;;;5923975;24;20416;-78
2022/08/18 16:01:49;;;;;;;17.27;16.17;;;25.90;22.40;;;;;;5948268;23;20397;-78
2022/08/18 16:04:59;;;;;;;;;;;;;;;;;;;;;
2022/08/18 16:08:05;;;;;;;17.57;16.70;;;25.80;22.40;;;;;;6043140;23;20466;-78
2022/08/18 16:11:35;;;;;;;17.07;16.23;;;25.90;22.10;;;;;;6069710;23;20406;-78
2022/08/18 16:18:09;;;;;;;;;;;;;;;;;;;;;
2022/08/18 16:21:28;;;;;;;;;;;;;;;;;;;;;
2022/08/18 16:24:48;;;;;;;17.03;16.07;;;25.90;21.60;;;;;;6123817;23;20485;-77
2022/08/18 16:28:38;;;;;;;17.93;16.90;;;25.80;21.70;;;;;;6152950;23;20422;-77
2022/08/18 16:31:14;;;;;;;17.70;16.70;;;25.80;21.90;;;;;;6180369;23;20725;-77
2022/08/18 16:34:30;;;;;;;17.07;16.20;;;25.80;21.80;;;;;;6107548;23;20851;-77
2022/08/18 16:37:40;;;;;;;18.53;17.33;;;25.80;21.60;;;;;;6214937;23;20380;-77
2022/08/18 16:40:46;;;;;;;16.47;15.60;;;25.80;21.90;;;;;;6180824;23;20383;-77
2022/08/18 16:43:48;;;;;;;16.40;15.60;;;25.70;21.90;;;;;;6065442;23;20400;-77
2022/08/18 16:47:17;;;;;;;17.63;16.53;;;25.70;21.80;;;;;;6058361;23;20442;-77
2022/08/18 16:50:44;;;;;;;17.00;16.00;;;25.70;21.70;;;;;;6064769;23;20384;-77
2022/08/18 16:53:29;;;;;;;16.03;15.23;;;25.70;22.40;;;;;;6117084;23;20387;-78
2022/08/18 16:56:27;;;;;;;17.30;16.07;;;25.60;23.40;;;;;;6213728;23;20411;-78
2022/08/18 17:12:19;;;;;;;16.30;15.40;;;25.30;26.30;;;;;;6120447;23;20507;-76
2022/08/18 17:15:28;;;;;;;18.00;17.00;;;25.20;26.70;;;;;;6098483;23;20373;-78
2022/08/18 17:18:40;;;;;;;18.13;17.13;;;25.10;26.90;;;;;;6040306;23;20592;-76
2022/08/18 17:21:44;;;;;;;18.30;17.20;;;25.00;27.00;;;;;;6036590;23;20454;-76
2022/08/18 17:24:48;;;;;;;16.63;15.67;;;25.00;27.30;;;;;;5955835;24;20400;-76
2022/08/18 17:27:39;;;;;;;17.27;16.37;;;24.90;27.30;;;;;;6006482;23;20433;-77
2022/08/18 17:30:18;;;;;;;17.40;16.50;;;24.90;27.50;;;;;;6117761;23;20469;-77
2022/08/18 17:33:23;;;;;;;18.13;16.97;;;24.90;27.50;;;;;;6122885;23;21010;-77
2022/08/18 17:36:01;;;;;;;16.90;15.97;;;24.90;27.80;;;;;;6097718;23;20389;-76
2022/08/18 17:39:08;;;;;;;18.83;17.67;;;24.80;27.80;;;;;;6098265;23;20423;-77
2022/08/18 17:42:24;;;;;;;18.20;17.20;;;24.80;28.00;;;;;;6164074;23;20406;-76
2022/08/18 17:44:48;;;;;;;19.47;18.37;;;24.80;28.30;;;;;;6211188;23;20430;-76
2022/08/18 17:48:15;;;;;;;17.97;17.07;;;24.80;28.30;;;;;;6213413;23;20451;-77
2022/08/18 17:51:40;;;;;;;18.30;17.27;;;24.70;28.30;;;;;;6141846;23;20471;-77
2022/08/18 17:55:03;;;;;;;;;;;;;;;;;;;;;
2022/08/18 17:58:14;;;;;;;19.37;18.07;;;24.60;28.60;;;;;;6214702;23;20466;-76
2022/08/18 18:01:09;;;;;;;18.97;17.83;;;24.70;28.50;;;;;;6214677;23;20348;-76
2022/08/18 18:03:56;;;;;;;19.13;18.00;;;24.60;28.70;;;;;;6213254;23;20775;-77
2022/08/18 18:07:05;;;;;;;19.43;18.33;;;24.60;28.80;;;;;;6212619;23;20430;-77
2022/08/18 18:13:43;;;;;;;19.37;18.27;;;24.50;28.80;;;;;;6151544;23;20717;-76
2022/08/18 18:20:36;;;;;;;21.67;20.37;;;24.50;28.90;;;;;;6035465;23;20391;-77
2022/08/18 18:24:33;;;;;;;;;;;;;;;;;;;;;
2022/08/18 18:31:27;;;;;;;;;;;;;;;;;;;;;
2022/08/18 18:34:54;;;;;;;22.17;20.83;;;24.40;28.80;;;;;;5883488;23;20474;-76
2022/08/18 18:37:51;;;;;;;23.47;21.77;;;24.40;28.80;;;;;;6063272;23;20378;-77
2022/08/18 18:40:54;;;;;;;21.40;20.00;;;24.40;29.00;;;;;;6094454;23;20409;-76
2022/08/18 18:47:27;;;;;;;;;;;;;;;;;;;;;
2022/08/18 19:00:54;;;;;;;19.40;18.27;;;24.40;28.80;;;;;;5871025;24;20707;-78
2022/08/18 19:07:22;;;;;;;22.37;20.80;;;24.40;28.70;;;;;;5891762;24;20924;-77
2022/08/18 19:21:09;;;;;;;22.60;21.20;;;24.20;28.00;;;;;;6073020;23;20430;-78
2022/08/18 19:24:18;;;;;;;21.43;20.13;;;24.30;28.00;;;;;;6095356;23;20394;-78
2022/08/18 19:26:52;;;;;;;21.30;19.90;;;24.20;28.20;;;;;;6099835;23;20397;-76
2022/08/18 19:37:10;;;;;;;21.90;20.50;;;24.10;28.50;;;;;;6125641;23;20377;-77
2022/08/18 19:44:19;;;;;;;22.30;20.80;;;24.10;28.40;;;;;;6154139;23;20869;-76
2022/08/18 19:57:12;;;;;;;21.80;20.40;;;24.10;28.20;;;;;;6153733;23;20377;-77
2022/08/18 20:00:27;;;;;;;;;;;;;;;;;;;;;
2022/08/18 20:03:15;;;;;;;21.67;20.17;;;24.00;28.60;;;;;;6216226;23;20494;-78
2022/08/18 21:37:09;;;;;;;21.47;20.17;;;23.60;29.70;;;;;;5059088;27;20565;-79
2022/08/18 21:39:58;;;;;;;21.40;20.00;;;23.60;29.70;;;;;;5075868;28;20398;-79
2022/08/18 21:42:39;;;;;;;21.73;20.27;;;23.60;29.90;;;;;;5086672;28;20407;-77
2022/08/18 21:45:06;;;;;;;21.33;19.93;;;23.50;29.80;;;;;;5088676;28;20480;-78
2022/08/18 21:47:33;;;;;;;20.73;19.03;;;23.50;29.90;;;;;;5084801;27;20473;-76
2022/08/18 21:50:13;;;;;;;20.67;19.37;;;23.50;29.90;;;;;;5085715;28;20411;-76
2022/08/18 21:52:52;;;;;;;19.40;18.07;;;23.50;30.00;;;;;;5086033;28;20776;-78
2022/08/18 21:55:40;;;;;;;20.30;19.00;;;23.50;30.70;;;;;;5085371;28;20949;-78
2022/08/18 21:58:20;;;;;;;23.63;21.73;;;23.50;29.80;;;;;;5085800;28;20447;-77
2022/08/18 22:01:15;;;;;;;20.73;19.43;;;23.50;29.70;;;;;;5085306;28;20777;-76
2022/08/18 22:03:59;;;;;;;21.13;19.80;;;23.50;29.60;;;;;;5085424;28;20404;-77
2022/08/18 22:06:33;;;;;;;21.30;20.00;;;23.40;29.50;;;;;;5083342;27;20561;-76
2022/08/18 22:15:15;;;;;;;19.53;18.17;;;23.40;29.50;;;;;;5084481;28;20582;-79
2022/08/18 22:17:46;;;;;;;20.57;19.37;;;23.40;29.50;;;;;;5085518;27;20393;-78
2022/08/18 22:20:42;;;;;;;21.03;19.73;;;23.40;29.40;;;;;;5085213;27;20436;-77
2022/08/18 22:26:20;;;;;;;22.33;20.80;;;23.40;29.20;;;;;;5085291;28;20956;-77
2022/08/18 22:28:53;;;;;;;22.60;21.00;;;23.40;29.20;;;;;;5085277;27;20553;-76
2022/08/18 22:31:21;;;;;;;20.80;19.40;;;23.40;29.00;;;;;;5084984;28;20403;-77
2022/08/18 22:33:46;;;;;;;21.80;20.20;;;23.40;29.50;;;;;;5084003;27;20417;-78
2022/08/18 22:36:17;;;;;;;21.80;20.07;;;23.40;28.80;;;;;;5084825;27;20844;-79
2022/08/18 22:38:45;;;;;;;21.83;20.27;;;23.30;28.90;;;;;;5085335;28;20170;-78
2022/08/18 22:41:10;;;;;;;22.10;20.30;;;23.30;28.80;;;;;;5083790;27;20457;-78
2022/08/18 22:43:36;;;;;;;21.80;20.10;;;23.20;28.90;;;;;;5085556;27;20444;-77
2022/08/18 22:46:02;;;;;;;21.00;19.60;;;23.20;29.10;;;;;;5085767;28;20615;-77
2022/08/18 22:48:27;;;;;;;21.87;20.37;;;23.20;29.10;;;;;;5081858;28;20164;-78
2022/08/18 22:50:53;;;;;;;22.20;20.60;;;23.20;29.00;;;;;;5085087;27;20435;-78
2022/08/18 22:53:19;;;;;;;21.10;19.70;;;23.30;28.90;;;;;;5084337;27;20293;-78
2022/08/18 22:55:44;;;;;;;21.37;19.83;;;23.20;29.00;;;;;;5084248;28;20192;-78
2022/08/18 22:58:10;;;;;;;22.10;20.50;;;23.20;29.00;;;;;;5075809;27;20195;-77
2022/08/18 23:00:36;;;;;;;23.20;21.57;;;23.20;29.20;;;;;;5077602;27;20171;-77
2022/08/18 23:03:02;;;;;;;22.20;20.63;;;23.10;29.30;;;;;;5071273;28;20180;-77
2022/08/18 23:05:28;;;;;;;21.07;19.70;;;23.10;29.40;;;;;;5071417;27;20436;-77
2022/08/18 23:07:53;;;;;;;21.17;19.77;;;23.00;29.50;;;;;;5071220;28;20232;-78
2022/08/18 23:10:20;;;;;;;21.77;20.27;;;23.00;29.40;;;;;;5070813;27;20414;-77
2022/08/18 23:12:47;;;;;;;21.33;19.93;;;23.00;29.40;;;;;;5071056;28;20179;-78
2022/08/18 23:15:17;;;;;;;21.83;19.97;;;22.90;29.90;;;;;;5070756;28;20461;-76
2022/08/18 23:17:42;;;;;;;20.70;19.40;;;22.90;29.80;;;;;;5069764;27;20418;-77
2022/08/18 23:20:13;;;;;;;21.83;19.90;;;22.90;30.00;;;;;;5070702;28;20417;-76
2022/08/18 23:22:39;;;;;;;21.10;19.80;;;23.00;29.80;;;;;;5070807;28;20167;-77
2022/08/18 23:25:06;;;;;;;21.43;20.03;;;23.00;30.50;;;;;;5069639;27;20445;-76
2022/08/18 23:27:32;;;;;;;21.47;19.97;;;23.00;29.80;;;;;;5070739;28;20406;-76
2022/08/18 23:29:58;;;;;;;21.37;19.60;;;23.10;29.80;;;;;;5070525;28;20410;-78
2022/08/18 23:32:23;;;;;;;22.30;20.80;;;23.10;29.60;;;;;;5069440;27;20426;-79
2022/08/18 23:34:49;;;;;;;21.43;19.90;;;23.10;29.70;;;;;;5070469;28;20175;-76
2022/08/18 23:37:15;;;;;;;22.80;20.70;;;22.90;30.00;;;;;;5069434;27;20707;-76
2022/08/18 23:39:43;;;;;;;20.20;18.70;;;22.80;30.40;;;;;;5070714;27;20168;-76
2022/08/18 23:42:11;;;;;;;20.50;19.03;;;22.80;30.30;;;;;;5070402;28;20167;-75
2022/08/18 23:44:36;;;;;;;21.13;19.63;;;22.70;30.80;;;;;;5070649;28;20473;-76
2022/08/18 23:47:02;;;;;;;21.80;20.20;;;22.60;31.10;;;;;;5070481;27;20907;-76
2022/08/18 23:49:29;;;;;;;23.23;21.50;;;22.60;31.20;;;;;;5070261;27;20198;-75
2022/08/18 23:51:56;;;;;;;23.57;21.77;;;22.70;31.00;;;;;;5070272;28;20585;-76
2022/08/18 23:54:33;;;;;;;20.80;19.40;;;22.70;30.90;;;;;;5070255;28;20436;-77